createdAt,value
2023-05-01T00:01:51.954Z,98986.09
2023-05-01T00:04:18.880Z,98990.60
2023-05-01T00:06:46.442Z,98995.02
2023-05-01T00:09:13.635Z,98998.25
2023-05-01T00:11:40.680Z,99006.16
2023-05-01T00:14:07.321Z,99009.72
2023-05-01T00:16:35.533Z,99013.85
2023-05-01T00:19:04.134Z,99021.67
2023-05-01T00:21:30.896Z,99018.47
2023-05-01T00:23:57.956Z,99020.72
2023-05-01T00:26:29.329Z,99024.40
2023-05-01T00:28:57.706Z,99020.73
2023-05-01T00:31:25.069Z,99019.98
2023-05-01T00:33:52.773Z,99021.48
2023-05-01T00:36:20.040Z,99024.36
2023-05-01T00:38:46.592Z,99021.36
2023-05-01T00:41:13.506Z,99022.68
2023-05-01T00:43:40.150Z,99023.17
2023-05-01T00:46:07.399Z,99027.85
2023-05-01T00:48:34.508Z,99031.76
2023-05-01T00:51:01.745Z,99030.44
2023-05-01T00:53:28.924Z,99034.31
2023-05-01T00:55:56.909Z,99031.71
2023-05-01T00:58:23.761Z,99035.80
2023-05-01T01:00:51.775Z,99040.77
2023-05-01T01:03:19.273Z,99042.23
2023-05-01T01:06:04.852Z,99044.54
2023-05-01T01:08:40.077Z,99047.76
2023-05-01T01:11:12.283Z,99047.98
2023-05-01T01:13:52.613Z,99046.39
2023-05-01T01:16:39.479Z,99048.20
2023-05-01T01:19:32.774Z,99043.09
2023-05-01T01:22:01.753Z,99040.36
2023-05-01T01:24:47.376Z,99045.05
2023-05-01T01:27:46.536Z,99049.33
2023-05-01T01:30:13.648Z,99053.58
2023-05-01T01:32:49.975Z,99057.03
2023-05-01T01:35:19.052Z,99060.29
2023-05-01T01:38:01.476Z,99053.27
2023-05-01T01:40:31.813Z,99046.42
2023-05-01T01:43:00.958Z,99052.66
2023-05-01T01:45:40.910Z,99058.67
2023-05-01T01:48:17.314Z,99060.91
2023-05-01T01:50:45.151Z,99067.07
2023-05-01T01:53:14.696Z,99070.35
2023-05-01T01:55:41.881Z,99070.06
2023-05-01T01:58:08.667Z,99078.14
2023-05-01T02:00:36.289Z,99082.52
2023-05-01T02:03:03.102Z,99081.63
2023-05-01T02:05:30.544Z,99084.73
2023-05-01T02:07:57.489Z,99095.48
2023-05-01T02:10:24.233Z,99091.98
2023-05-01T02:12:51.329Z,99097.83
2023-05-01T02:15:20.890Z,99100.58
2023-05-01T02:17:48.029Z,99102.26
2023-05-01T02:20:15.249Z,99099.11
2023-05-01T02:22:43.299Z,99102.11
2023-05-01T02:25:11.500Z,99106.92
2023-05-01T02:27:46.756Z,99108.36
2023-05-01T02:30:13.737Z,99111.61
2023-05-01T02:32:40.828Z,99110.81
2023-05-01T02:35:07.678Z,99112.33
2023-05-01T02:37:34.951Z,99111.97
2023-05-01T02:40:02.809Z,99116.26
2023-05-01T02:42:29.902Z,99117.59
2023-05-01T02:44:57.926Z,99118.52
2023-05-01T02:47:24.802Z,99120.56
2023-05-01T02:49:51.833Z,99127.17
2023-05-01T02:52:18.823Z,99129.86
2023-05-01T02:54:46.736Z,99133.18
2023-05-01T02:57:13.776Z,99135.28
2023-05-01T02:59:40.723Z,99137.10
2023-05-01T03:02:07.385Z,99142.11
2023-05-01T03:04:34.750Z,99147.41
2023-05-01T03:07:01.705Z,99151.16
2023-05-01T03:09:28.626Z,99153.82
2023-05-01T03:11:55.368Z,99157.84
2023-05-01T03:14:22.341Z,99159.36
2023-05-01T03:16:49.205Z,99159.41
2023-05-01T03:19:16.069Z,99165.25
2023-05-01T03:21:43.450Z,99166.21
2023-05-01T03:24:10.302Z,99169.13
2023-05-01T03:26:37.226Z,99170.30
2023-05-01T03:29:03.938Z,99171.84
2023-05-01T03:31:31.118Z,99177.13
2023-05-01T03:33:58.523Z,99177.48
2023-05-01T03:36:25.242Z,99179.70
2023-05-01T03:38:52.141Z,99177.67
2023-05-01T03:41:37.728Z,99179.61
2023-05-01T03:44:24.857Z,99182.38
2023-05-01T03:46:51.979Z,99181.83
2023-05-01T03:49:23.353Z,99190.88
2023-05-01T03:51:50.718Z,99191.80
2023-05-01T03:54:17.836Z,99192.59
2023-05-01T03:57:04.936Z,99193.77
2023-05-01T03:59:31.612Z,99196.23
2023-05-01T04:01:58.676Z,99196.55
2023-05-01T04:04:26.410Z,99196.81
2023-05-01T04:06:56.334Z,99199.53
2023-05-01T04:09:23.187Z,99204.19
2023-05-01T04:11:50.115Z,99205.35
2023-05-01T04:14:17.062Z,99206.20
2023-05-01T04:16:44.803Z,99202.94
2023-05-01T04:19:11.647Z,99208.07
2023-05-01T04:21:41.367Z,99210.88
2023-05-01T04:24:09.018Z,99216.61
2023-05-01T04:26:35.961Z,99212.95
2023-05-01T04:29:03.112Z,99221.16
2023-05-01T04:31:30.335Z,99225.36
2023-05-01T04:33:58.132Z,99227.09
2023-05-01T04:36:25.108Z,99223.45
2023-05-01T04:38:52.014Z,99233.06
2023-05-01T04:41:18.957Z,99228.01
2023-05-01T04:43:46.013Z,99233.66
2023-05-01T04:46:13.845Z,99238.52
2023-05-01T04:48:41.782Z,99235.31
2023-05-01T04:51:10.216Z,99236.40
2023-05-01T04:53:37.053Z,99241.90
2023-05-01T04:56:05.374Z,99246.65
2023-05-01T04:58:33.444Z,99254.83
2023-05-01T05:01:04.572Z,99257.14
2023-05-01T05:03:31.556Z,99258.73
2023-05-01T05:05:58.502Z,99258.95
2023-05-01T05:08:25.377Z,99263.65
2023-05-01T05:10:59.441Z,99259.52
2023-05-01T05:13:47.508Z,99265.65
2023-05-01T05:16:14.616Z,99260.23
2023-05-01T05:18:41.973Z,99266.30
2023-05-01T05:21:09.984Z,99269.92
2023-05-01T05:23:36.778Z,99273.92
2023-05-01T05:26:05.204Z,99273.56
2023-05-01T05:28:32.277Z,99276.11
2023-05-01T05:30:59.444Z,99273.93
2023-05-01T05:33:26.673Z,99277.41
2023-05-01T05:35:53.470Z,99287.95
2023-05-01T05:38:23.442Z,99294.95
2023-05-01T05:40:53.906Z,99295.52
2023-05-01T05:43:25.043Z,99295.72
2023-05-01T05:45:58.571Z,99295.59
2023-05-01T05:48:26.348Z,99296.70
2023-05-01T05:50:53.363Z,99304.14
2023-05-01T05:53:20.607Z,99307.10
2023-05-01T05:55:47.580Z,99303.42
2023-05-01T05:58:19.316Z,99314.71
2023-05-01T06:00:47.959Z,99319.20
2023-05-01T06:03:16.505Z,99320.38
2023-05-01T06:05:44.179Z,99317.33
2023-05-01T06:08:11.456Z,99318.25
2023-05-01T06:10:42.516Z,99313.91
2023-05-01T06:13:14.241Z,99321.16
2023-05-01T06:15:47.049Z,99327.70
2023-05-01T06:18:13.905Z,99330.33
2023-05-01T06:20:40.831Z,99336.36
2023-05-01T06:23:09.073Z,99337.08
2023-05-01T06:25:42.438Z,99339.61
2023-05-01T06:28:10.443Z,99337.25
2023-05-01T06:30:37.209Z,99346.58
2023-05-01T06:33:04.398Z,99348.58
2023-05-01T06:35:32.622Z,99358.77
2023-05-01T06:37:59.726Z,99356.75
2023-05-01T06:40:26.485Z,99359.23
2023-05-01T06:42:53.226Z,99354.66
2023-05-01T06:45:22.120Z,99359.38
2023-05-01T06:47:50.064Z,99358.85
2023-05-01T06:50:16.854Z,99362.06
2023-05-01T06:52:43.719Z,99365.75
2023-05-01T06:55:11.823Z,99367.38
2023-05-01T06:57:39.627Z,99369.32
2023-05-01T07:00:06.902Z,99364.63
2023-05-01T07:02:34.733Z,99370.08
2023-05-01T07:05:01.863Z,99363.90
2023-05-01T07:07:30.339Z,99377.23
2023-05-01T07:09:57.260Z,99372.06
2023-05-01T07:12:24.336Z,99370.96
2023-05-01T07:14:51.002Z,99377.20
2023-05-01T07:17:17.765Z,99383.77
2023-05-01T07:19:44.533Z,99388.08
2023-05-01T07:22:11.953Z,99386.31
2023-05-01T07:24:38.670Z,99395.26
2023-05-01T07:27:05.826Z,99393.78
2023-05-01T07:29:32.643Z,99401.92
2023-05-01T07:32:00.744Z,99400.79
2023-05-01T07:34:27.757Z,99407.09
2023-05-01T07:36:55.902Z,99411.54
2023-05-01T07:39:22.838Z,99413.41
2023-05-01T07:41:49.695Z,99414.88
2023-05-01T07:44:16.424Z,99417.84
2023-05-01T07:46:43.122Z,99416.23
2023-05-01T07:49:09.963Z,99413.05
2023-05-01T07:51:36.683Z,99412.73
2023-05-01T07:54:03.901Z,99423.27
2023-05-01T07:56:30.913Z,99426.89
2023-05-01T07:58:57.636Z,99429.95
2023-05-01T08:01:24.935Z,99431.10
2023-05-01T08:03:51.803Z,99434.82
2023-05-01T08:06:18.696Z,99431.17
2023-05-01T08:08:45.492Z,99433.86
2023-05-01T08:11:12.437Z,99422.67
2023-05-01T08:13:39.119Z,99431.36
2023-05-01T08:16:06.019Z,99435.13
2023-05-01T08:18:32.830Z,99435.82
2023-05-01T08:20:59.494Z,99439.71
2023-05-01T08:23:26.540Z,99443.22
2023-05-01T08:25:53.576Z,99449.45
2023-05-01T08:28:20.865Z,99443.80
2023-05-01T08:30:48.762Z,99440.11
2023-05-01T08:33:15.841Z,99446.57
2023-05-01T08:35:42.602Z,99443.87
2023-05-01T08:38:10.735Z,99445.56
2023-05-01T08:40:37.903Z,99446.59
2023-05-01T08:43:04.683Z,99447.77
2023-05-01T08:45:35.550Z,99448.42
2023-05-01T08:48:05.218Z,99456.73
2023-05-01T08:50:38.422Z,99455.37
2023-05-01T08:53:05.942Z,99452.23
2023-05-01T08:55:34.330Z,99453.86
2023-05-01T08:58:01.201Z,99455.25
2023-05-01T09:00:28.070Z,99466.76
2023-05-01T09:02:54.883Z,99479.14
2023-05-01T09:05:21.627Z,99474.16
2023-05-01T09:07:52.079Z,99464.30
2023-05-01T09:10:19.084Z,99471.86
2023-05-01T09:12:48.550Z,99478.15
2023-05-01T09:15:15.656Z,99479.05
2023-05-01T09:17:43.575Z,99483.19
2023-05-01T09:20:10.718Z,99484.27
2023-05-01T09:22:38.147Z,99483.42
2023-05-01T09:25:05.939Z,99480.98
2023-05-01T09:27:39.000Z,99486.23
2023-05-01T09:30:07.008Z,99484.23
2023-05-01T09:32:34.126Z,99485.98
2023-05-01T09:35:14.120Z,99485.98
2023-05-01T09:37:41.187Z,99486.80
2023-05-01T09:40:12.089Z,99490.50
2023-05-01T09:42:50.230Z,99497.17
2023-05-01T09:45:18.403Z,99495.86
2023-05-01T09:47:45.703Z,99496.56
2023-05-01T09:50:33.668Z,99494.41
2023-05-01T09:53:04.613Z,99497.36
2023-05-01T09:55:33.136Z,99497.06
2023-05-01T09:58:00.032Z,99497.45
2023-05-01T10:00:27.088Z,99502.10
2023-05-01T10:02:54.462Z,99498.69
2023-05-01T10:05:22.491Z,99500.77
2023-05-01T10:08:00.500Z,99508.23
2023-05-01T10:10:27.277Z,99509.23
2023-05-01T10:12:54.316Z,99507.65
2023-05-01T10:15:26.069Z,99511.47
2023-05-01T10:17:55.126Z,99516.96
2023-05-01T10:20:22.034Z,99512.50
2023-05-01T10:22:49.537Z,99511.71
2023-05-01T10:25:16.806Z,99507.91
2023-05-01T10:27:43.599Z,99513.64
2023-05-01T10:30:10.585Z,99511.02
2023-05-01T10:32:37.899Z,99508.51
2023-05-01T10:35:12.278Z,99506.34
2023-05-01T10:37:46.924Z,99510.73
2023-05-01T10:40:39.452Z,99521.05
2023-05-01T10:43:28.047Z,99513.96
2023-05-01T10:46:07.041Z,99517.35
2023-05-01T10:48:40.233Z,99514.48
2023-05-01T10:51:13.896Z,99514.02
2023-05-01T10:53:41.779Z,99520.83
2023-05-01T10:56:24.790Z,99520.02
2023-05-01T10:58:58.939Z,99527.04
2023-05-01T11:01:36.320Z,99517.54
2023-05-01T11:04:27.577Z,99517.24
2023-05-01T11:07:10.574Z,99518.73
2023-05-01T11:09:41.772Z,99519.68
2023-05-01T11:12:10.636Z,99522.49
2023-05-01T11:14:56.917Z,99522.73
2023-05-01T11:17:39.277Z,99521.76
2023-05-01T11:20:10.425Z,99517.64
2023-05-01T11:22:39.458Z,99522.82
2023-05-01T11:25:20.154Z,99535.35
2023-05-01T11:27:51.902Z,99539.81
2023-05-01T11:30:18.802Z,99525.66
2023-05-01T11:32:46.981Z,99526.83
2023-05-01T11:35:27.563Z,99527.30
2023-05-01T11:37:57.210Z,99529.52
2023-05-01T11:40:24.606Z,99529.91
2023-05-01T11:42:59.655Z,99527.52
2023-05-01T11:45:26.375Z,99533.30
2023-05-01T11:47:53.458Z,99536.02
2023-05-01T11:50:21.482Z,99528.60
2023-05-01T11:52:52.969Z,99533.06
2023-05-01T11:55:33.026Z,99528.91
2023-05-01T11:57:59.894Z,99531.80
2023-05-01T12:00:31.114Z,99531.44
2023-05-01T12:03:06.135Z,99530.27
2023-05-01T12:05:37.725Z,99533.39
2023-05-01T12:08:13.917Z,99534.48
2023-05-01T12:10:42.764Z,99537.14
2023-05-01T12:13:11.014Z,99539.69
2023-05-01T12:15:40.344Z,99539.53
2023-05-01T12:18:07.277Z,99538.73
2023-05-01T12:20:51.444Z,99540.67
2023-05-01T12:23:19.126Z,99541.52
2023-05-01T12:25:45.896Z,99540.90
2023-05-01T12:28:13.675Z,99539.98
2023-05-01T12:30:41.514Z,99542.40
2023-05-01T12:33:09.941Z,99544.55
2023-05-01T12:35:37.306Z,99546.64
2023-05-01T12:38:20.394Z,99540.59
2023-05-01T12:40:54.196Z,99545.96
2023-05-01T12:43:22.352Z,99551.93
2023-05-01T12:45:53.275Z,99555.75
2023-05-01T12:48:20.280Z,99546.83
2023-05-01T12:50:53.806Z,99546.84
2023-05-01T12:53:22.515Z,99544.42
2023-05-01T12:55:53.457Z,99547.98
2023-05-01T12:58:20.302Z,99549.66
2023-05-01T13:00:54.175Z,99552.65
2023-05-01T13:03:30.100Z,99552.73
2023-05-01T13:05:58.811Z,99553.26
2023-05-01T13:08:33.058Z,99552.11
2023-05-01T13:11:02.360Z,99551.54
2023-05-01T13:13:32.701Z,99552.39
2023-05-01T13:16:04.721Z,99546.05
2023-05-01T13:18:33.013Z,99551.76
2023-05-01T13:21:08.374Z,99554.33
2023-05-01T13:23:37.255Z,99554.19
2023-05-01T13:26:06.416Z,99560.33
2023-05-01T13:28:41.650Z,99561.91
2023-05-01T13:31:12.201Z,99563.36
2023-05-01T13:33:40.836Z,99567.99
2023-05-01T13:36:24.335Z,99574.29
2023-05-01T13:38:55.774Z,99572.36
2023-05-01T13:41:25.178Z,99574.11
2023-05-01T13:43:52.704Z,99569.23
2023-05-01T13:46:20.936Z,99572.77
2023-05-01T13:48:48.675Z,99573.40
2023-05-01T13:51:21.396Z,99579.91
2023-05-01T13:53:47.945Z,99584.21
2023-05-01T13:56:15.343Z,99583.11
2023-05-01T13:58:42.276Z,99583.11
2023-05-01T14:01:20.033Z,99584.42
2023-05-01T14:03:47.703Z,99583.21
2023-05-01T14:06:15.992Z,99583.35
2023-05-01T14:08:44.016Z,99586.29
2023-05-01T14:11:11.908Z,99588.44
2023-05-01T14:13:45.957Z,99592.48
2023-05-01T14:16:24.562Z,99595.49
2023-05-01T14:18:56.194Z,99594.02
2023-05-01T14:21:23.954Z,99592.97
2023-05-01T14:23:51.916Z,99593.79
2023-05-01T14:26:18.970Z,99597.73
2023-05-01T14:28:45.987Z,99595.80
2023-05-01T14:31:23.088Z,99600.02
2023-05-01T14:33:52.904Z,99601.21
2023-05-01T14:36:19.582Z,99598.91
2023-05-01T14:38:48.766Z,99603.67
2023-05-01T14:41:18.855Z,99602.21
2023-05-01T14:43:46.764Z,99610.91
2023-05-01T14:46:15.480Z,99612.56
2023-05-01T14:48:42.423Z,99613.40
2023-05-01T14:51:12.301Z,99615.79
2023-05-01T14:53:41.443Z,99614.64
2023-05-01T14:56:08.619Z,99618.19
2023-05-01T14:58:35.720Z,99617.32
2023-05-01T15:01:02.632Z,99615.34
2023-05-01T15:03:29.564Z,99616.34
2023-05-01T15:05:56.889Z,99622.81
2023-05-01T15:08:23.808Z,99619.27
2023-05-01T15:10:53.292Z,99625.23
2023-05-01T15:13:20.715Z,99626.31
2023-05-01T15:15:47.533Z,99628.50
2023-05-01T15:18:14.356Z,99630.63
2023-05-01T15:20:41.203Z,99629.84
2023-05-01T15:23:08.773Z,99635.80
2023-05-01T15:25:36.332Z,99639.77
2023-05-01T15:28:03.307Z,99640.17
2023-05-01T15:30:30.559Z,99638.86
2023-05-01T15:32:57.407Z,99640.34
2023-05-01T15:35:25.825Z,99643.98
2023-05-01T15:37:53.478Z,99652.10
2023-05-01T15:40:20.402Z,99650.66
2023-05-01T15:42:47.631Z,99655.29
2023-05-01T15:45:14.468Z,99656.95
2023-05-01T15:47:41.469Z,99657.32
2023-05-01T15:50:11.066Z,99662.45
2023-05-01T15:52:38.132Z,99660.77
2023-05-01T15:55:05.498Z,99666.67
2023-05-01T15:57:33.924Z,99665.91
2023-05-01T16:00:01.140Z,99670.30
2023-05-01T16:02:32.026Z,99668.08
2023-05-01T16:04:59.301Z,99670.14
2023-05-01T16:07:28.494Z,99675.43
2023-05-01T16:09:56.473Z,99677.07
2023-05-01T16:12:23.488Z,99682.95
2023-05-01T16:14:50.172Z,99687.20
2023-05-01T16:17:17.877Z,99686.64
2023-05-01T16:19:45.025Z,99694.48
2023-05-01T16:22:13.440Z,99697.13
2023-05-01T16:24:40.140Z,99701.20
2023-05-01T16:27:06.972Z,99704.42
2023-05-01T16:29:34.545Z,99709.85
2023-05-01T16:32:03.515Z,99710.01
2023-05-01T16:34:30.360Z,99714.17
2023-05-01T16:36:57.662Z,99718.50
2023-05-01T16:39:24.354Z,99719.46
2023-05-01T16:41:52.348Z,99724.92
2023-05-01T16:44:19.826Z,99726.37
2023-05-01T16:46:54.025Z,99733.67
2023-05-01T16:49:24.518Z,99737.20
2023-05-01T16:51:55.896Z,99740.03
2023-05-01T16:54:31.367Z,99740.38
2023-05-01T16:56:58.558Z,99747.25
2023-05-01T16:59:25.299Z,99751.83
2023-05-01T17:01:52.412Z,99753.95
2023-05-01T17:04:19.342Z,99755.71
2023-05-01T17:06:46.332Z,99762.34
2023-05-01T17:09:13.032Z,99766.01
2023-05-01T17:11:55.912Z,99766.04
2023-05-01T17:14:22.655Z,99770.71
2023-05-01T17:16:50.410Z,99772.31
2023-05-01T17:19:17.322Z,99775.55
2023-05-01T17:21:44.065Z,99777.02
2023-05-01T17:24:12.506Z,99781.33
2023-05-01T17:26:39.158Z,99781.82
2023-05-01T17:29:05.818Z,99782.34
2023-05-01T17:31:33.046Z,99787.20
2023-05-01T17:34:00.145Z,99791.80
2023-05-01T17:36:27.090Z,99793.41
2023-05-01T17:38:54.012Z,99799.15
2023-05-01T17:41:21.886Z,99799.69
2023-05-01T17:43:48.484Z,99801.46
2023-05-01T17:46:16.340Z,99806.67
2023-05-01T17:48:43.869Z,99814.09
2023-05-01T17:51:13.311Z,99814.04
2023-05-01T17:53:40.913Z,99818.80
2023-05-01T17:56:08.413Z,99820.92
2023-05-01T17:58:35.957Z,99823.34
2023-05-01T18:01:03.893Z,99825.20
2023-05-01T18:03:33.723Z,99828.92
2023-05-01T18:06:00.791Z,99833.53
2023-05-01T18:08:27.476Z,99835.36
2023-05-01T18:10:54.090Z,99839.61
2023-05-01T18:13:27.251Z,99840.05
2023-05-01T18:15:55.243Z,99846.77
2023-05-01T18:18:22.165Z,99849.05
2023-05-01T18:20:48.808Z,99851.65
2023-05-01T18:23:19.138Z,99852.16
2023-05-01T18:25:45.710Z,99851.80
2023-05-01T18:28:12.425Z,99852.52
2023-05-01T18:30:39.955Z,99858.17
2023-05-01T18:33:06.785Z,99862.06
2023-05-01T18:35:37.153Z,99866.39
2023-05-01T18:38:03.914Z,99870.23
2023-05-01T18:40:31.183Z,99872.67
2023-05-01T18:42:58.329Z,99875.67
2023-05-01T18:45:25.281Z,99883.09
2023-05-01T18:47:51.986Z,99884.11
2023-05-01T18:50:21.185Z,99885.44
2023-05-01T18:52:48.109Z,99887.36
2023-05-01T18:55:14.960Z,99887.33
2023-05-01T18:57:43.122Z,99892.81
2023-05-01T19:00:12.441Z,99894.91
2023-05-01T19:02:39.316Z,99896.31
2023-05-01T19:05:08.130Z,99893.80
2023-05-01T19:07:34.855Z,99894.04
2023-05-01T19:10:02.160Z,99893.58
2023-05-01T19:12:29.424Z,99901.33
2023-05-01T19:14:56.045Z,99903.99
2023-05-01T19:17:23.049Z,99907.75
2023-05-01T19:19:49.660Z,99908.77
2023-05-01T19:22:16.329Z,99910.27
2023-05-01T19:24:42.901Z,99911.08
2023-05-01T19:27:11.086Z,99914.48
2023-05-01T19:29:39.074Z,99914.13
2023-05-01T19:32:06.324Z,99914.27
2023-05-01T19:34:33.070Z,99916.95
2023-05-01T19:37:01.444Z,99917.08
2023-05-01T19:39:28.628Z,99922.20
2023-05-01T19:41:55.803Z,99920.67
2023-05-01T19:44:22.405Z,99925.11
2023-05-01T19:46:49.091Z,99926.66
2023-05-01T19:49:15.998Z,99929.30
2023-05-01T19:51:42.610Z,99930.96
2023-05-01T19:54:09.206Z,99934.02
2023-05-01T19:56:37.954Z,99937.45
2023-05-01T19:59:04.613Z,99935.66
2023-05-01T20:01:31.628Z,99939.16
2023-05-01T20:03:58.462Z,99939.67
2023-05-01T20:06:25.792Z,99941.48
2023-05-01T20:08:52.436Z,99944.86
2023-05-01T20:11:19.072Z,99943.68
2023-05-01T20:13:45.726Z,99944.55
2023-05-01T20:16:12.412Z,99948.08
2023-05-01T20:18:39.128Z,99947.69
2023-05-01T20:21:06.969Z,99951.75
2023-05-01T20:23:33.914Z,99951.42
2023-05-01T20:26:00.698Z,99950.02
2023-05-01T20:28:27.930Z,99951.59
2023-05-01T20:30:54.645Z,99953.60
2023-05-01T20:33:21.655Z,99953.86
2023-05-01T20:35:48.533Z,99956.27
2023-05-01T20:38:15.193Z,99955.77
2023-05-01T20:40:41.984Z,99958.61
2023-05-01T20:43:08.604Z,99961.88
2023-05-01T20:45:35.551Z,99961.81
2023-05-01T20:48:02.264Z,99960.34
2023-05-01T20:50:29.246Z,99961.08
2023-05-01T20:52:56.040Z,99960.28
2023-05-01T20:55:23.216Z,99960.89
2023-05-01T20:57:49.967Z,99962.27
2023-05-01T21:00:16.605Z,99962.04
2023-05-01T21:02:43.649Z,99964.93
2023-05-01T21:05:10.559Z,99967.74
2023-05-01T21:07:38.423Z,99971.55
2023-05-01T21:10:06.172Z,99973.26
2023-05-01T21:12:33.332Z,99972.40
2023-05-01T21:15:04.108Z,99975.55
2023-05-01T21:17:35.298Z,99981.07
2023-05-01T21:20:05.113Z,99980.77
2023-05-01T21:22:32.201Z,99986.23
2023-05-01T21:24:59.297Z,99988.52
2023-05-01T21:27:26.289Z,99993.21
2023-05-01T21:30:00.363Z,99995.78
2023-05-01T21:32:32.555Z,100000.30
2023-05-01T21:35:03.151Z,100001.67
2023-05-01T21:37:30.208Z,100001.61
2023-05-01T21:39:57.956Z,100002.62
2023-05-01T21:42:28.709Z,100007.89
2023-05-01T21:44:57.414Z,100004.66
2023-05-01T21:47:25.317Z,100003.98
2023-05-01T21:49:55.862Z,100008.54
2023-05-01T21:52:22.610Z,100005.70
2023-05-01T21:54:49.214Z,100012.96
2023-05-01T21:57:15.885Z,100015.67
2023-05-01T21:59:44.469Z,100020.92
2023-05-01T22:02:11.508Z,100027.13
2023-05-01T22:04:38.577Z,100028.96
2023-05-01T22:07:05.272Z,100029.27
2023-05-01T22:09:32.691Z,100029.70
2023-05-01T22:11:59.287Z,100031.38
2023-05-01T22:14:33.565Z,100032.61
2023-05-01T22:17:07.142Z,100034.19
2023-05-01T22:19:33.976Z,100036.98
2023-05-01T22:22:00.607Z,100036.79
2023-05-01T22:24:27.201Z,100041.64
2023-05-01T22:26:53.878Z,100044.40
2023-05-01T22:29:20.548Z,100046.56
2023-05-01T22:31:47.169Z,100047.17
2023-05-01T22:34:13.906Z,100049.65
2023-05-01T22:36:40.725Z,100054.80
2023-05-01T22:39:07.384Z,100060.21
2023-05-01T22:41:34.102Z,100057.81
2023-05-01T22:44:00.986Z,100053.17
2023-05-01T22:46:28.341Z,100056.48
2023-05-01T22:48:55.215Z,100055.45
2023-05-01T22:51:21.894Z,100055.37
2023-05-01T22:53:49.073Z,100056.58
2023-05-01T22:56:15.731Z,100052.10
2023-05-01T22:58:42.383Z,100051.62
2023-05-01T23:01:09.210Z,100054.19
2023-05-01T23:03:38.679Z,100057.30
2023-05-01T23:06:05.880Z,100056.71
2023-05-01T23:08:33.589Z,100057.98
2023-05-01T23:11:00.195Z,100060.73
2023-05-01T23:13:27.556Z,100061.14
2023-05-01T23:15:54.246Z,100063.60
2023-05-01T23:18:25.132Z,100064.03
2023-05-01T23:20:51.970Z,100064.50
2023-05-01T23:23:21.866Z,100060.77
2023-05-01T23:25:49.788Z,100065.38
2023-05-01T23:28:24.017Z,100063.16
2023-05-01T23:30:58.793Z,100061.88
2023-05-01T23:33:27.702Z,100061.88
2023-05-01T23:35:54.514Z,100058.10
2023-05-01T23:38:21.110Z,100058.67
2023-05-01T23:40:49.079Z,100060.48
2023-05-01T23:43:16.079Z,100063.20
2023-05-01T23:45:42.800Z,100066.39
2023-05-01T23:48:09.500Z,100068.23
2023-05-01T23:50:37.043Z,100070.35
2023-05-01T23:53:07.384Z,100069.05
2023-05-01T23:55:34.880Z,100071.27
2023-05-01T23:58:01.689Z,100074.19
